sensor_id;sensor_type;location;lat;lon;timestamp;P1;durP1;ratioP1;P2;durP2;ratioP2
28760;SDS011;15917;50.014;8.352;2023-02-28T00:01:00;3.97;;;1.75;;
28760;SDS011;15917;50.014;8.352;2023-02-28T00:03:26;5.60;;;2.00;;
28760;SDS011;15917;50.014;8.352;2023-02-28T00:05:52;2.75;;;1.65;;
28760;SDS011;15917;50.014;8.352;2023-02-28T00:08:17;6.97;;;2.03;;
28760;SDS011;15917;50.014;8.352;2023-02-28T00:10:43;4.00;;;1.88;;
28760;SDS011;15917;50.014;8.352;2023-02-28T00:13:09;5.78;;;1.70;;
28760;SDS011;15917;50.014;8.352;2023-02-28T00:15:34;6.97;;;1.80;;
28760;SDS011;15917;50.014;8.352;2023-02-28T00:18:00;7.65;;;1.73;;
28760;SDS011;15917;50.014;8.352;2023-02-28T00:20:27;2.75;;;2.10;;
28760;SDS011;15917;50.014;8.352;2023-02-28T00:22:53;4.03;;;2.05;;
28760;SDS011;15917;50.014;8.352;2023-02-28T00:25:20;3.88;;;2.10;;
28760;SDS011;15917;50.014;8.352;2023-02-28T00:27:47;6.28;;;2.00;;
28760;SDS011;15917;50.014;8.352;2023-02-28T00:30:15;4.90;;;1.95;;
28760;SDS011;15917;50.014;8.352;2023-02-28T00:32:45;6.20;;;2.22;;
28760;SDS011;15917;50.014;8.352;2023-02-28T00:35:11;5.38;;;2.15;;
28760;SDS011;15917;50.014;8.352;2023-02-28T00:37:40;4.75;;;2.13;;
28760;SDS011;15917;50.014;8.352;2023-02-28T00:40:06;6.13;;;2.47;;
28760;SDS011;15917;50.014;8.352;2023-02-28T00:42:36;7.32;;;2.35;;
28760;SDS011;15917;50.014;8.352;2023-02-28T00:45:02;6.30;;;2.45;;
28760;SDS011;15917;50.014;8.352;2023-02-28T00:47:33;4.25;;;2.10;;
28760;SDS011;15917;50.014;8.352;2023-02-28T00:49:58;6.20;;;2.80;;
28760;SDS011;15917;50.014;8.352;2023-02-28T00:52:24;6.50;;;2.60;;
28760;SDS011;15917;50.014;8.352;2023-02-28T00:54:50;6.60;;;2.20;;
28760;SDS011;15917;50.014;8.352;2023-02-28T00:57:15;5.40;;;2.30;;
28760;SDS011;15917;50.014;8.352;2023-02-28T00:59:41;6.22;;;2.95;;
28760;SDS011;15917;50.014;8.352;2023-02-28T01:02:06;3.90;;;2.47;;
28760;SDS011;15917;50.014;8.352;2023-02-28T01:04:32;6.03;;;2.92;;
28760;SDS011;15917;50.014;8.352;2023-02-28T01:07:00;6.60;;;2.42;;
28760;SDS011;15917;50.014;8.352;2023-02-28T01:09:27;3.75;;;2.50;;
28760;SDS011;15917;50.014;8.352;2023-02-28T01:11:53;3.53;;;2.30;;
28760;SDS011;15917;50.014;8.352;2023-02-28T01:14:18;3.92;;;2.40;;
28760;SDS011;15917;50.014;8.352;2023-02-28T01:16:44;6.45;;;2.75;;
28760;SDS011;15917;50.014;8.352;2023-02-28T01:19:10;5.18;;;2.78;;
28760;SDS011;15917;50.014;8.352;2023-02-28T01:21:37;8.50;;;2.90;;
28760;SDS011;15917;50.014;8.352;2023-02-28T01:24:03;8.35;;;3.60;;
28760;SDS011;15917;50.014;8.352;2023-02-28T01:26:29;7.10;;;2.95;;
28760;SDS011;15917;50.014;8.352;2023-02-28T01:28:56;7.60;;;3.83;;
28760;SDS011;15917;50.014;8.352;2023-02-28T01:31:22;5.60;;;2.47;;
28760;SDS011;15917;50.014;8.352;2023-02-28T01:33:48;6.07;;;3.22;;
28760;SDS011;15917;50.014;8.352;2023-02-28T01:36:15;7.50;;;2.97;;
28760;SDS011;15917;50.014;8.352;2023-02-28T01:38:50;7.13;;;3.13;;
28760;SDS011;15917;50.014;8.352;2023-02-28T01:41:18;13.18;;;3.30;;
28760;SDS011;15917;50.014;8.352;2023-02-28T01:46:12;5.80;;;3.42;;
28760;SDS011;15917;50.014;8.352;2023-02-28T01:48:44;6.70;;;3.45;;
28760;SDS011;15917;50.014;8.352;2023-02-28T01:51:35;6.65;;;3.92;;
28760;SDS011;15917;50.014;8.352;2023-02-28T01:54:11;9.60;;;3.97;;
28760;SDS011;15917;50.014;8.352;2023-02-28T01:56:46;6.15;;;3.53;;
28760;SDS011;15917;50.014;8.352;2023-02-28T01:59:20;7.75;;;3.78;;
28760;SDS011;15917;50.014;8.352;2023-02-28T02:02:14;7.43;;;3.92;;
28760;SDS011;15917;50.014;8.352;2023-02-28T02:04:44;5.40;;;3.67;;
28760;SDS011;15917;50.014;8.352;2023-02-28T02:07:29;8.50;;;3.70;;
28760;SDS011;15917;50.014;8.352;2023-02-28T02:10:06;11.73;;;3.50;;
28760;SDS011;15917;50.014;8.352;2023-02-28T02:15:36;13.70;;;4.20;;
28760;SDS011;15917;50.014;8.352;2023-02-28T02:18:18;6.35;;;3.78;;
28760;SDS011;15917;50.014;8.352;2023-02-28T02:26:34;6.00;;;3.50;;
28760;SDS011;15917;50.014;8.352;2023-02-28T02:32:19;11.55;;;4.15;;
28760;SDS011;15917;50.014;8.352;2023-02-28T02:40:36;6.40;;;3.88;;
28760;SDS011;15917;50.014;8.352;2023-02-28T02:48:59;5.95;;;3.53;;
28760;SDS011;15917;50.014;8.352;2023-02-28T02:51:29;8.63;;;3.33;;
28760;SDS011;15917;50.014;8.352;2023-02-28T02:53:58;4.72;;;3.28;;
28760;SDS011;15917;50.014;8.352;2023-02-28T02:57:02;7.30;;;2.88;;
28760;SDS011;15917;50.014;8.352;2023-02-28T02:59:31;6.55;;;3.28;;
28760;SDS011;15917;50.014;8.352;2023-02-28T03:01:58;7.35;;;3.42;;
28760;SDS011;15917;50.014;8.352;2023-02-28T03:04:28;5.43;;;3.40;;
28760;SDS011;15917;50.014;8.352;2023-02-28T03:06:57;6.82;;;3.47;;
28760;SDS011;15917;50.014;8.352;2023-02-28T03:09:23;6.10;;;3.45;;
28760;SDS011;15917;50.014;8.352;2023-02-28T03:11:51;6.78;;;3.63;;
28760;SDS011;15917;50.014;8.352;2023-02-28T03:25:31;7.75;;;3.40;;
28760;SDS011;15917;50.014;8.352;2023-02-28T03:28:04;4.40;;;2.88;;
28760;SDS011;15917;50.014;8.352;2023-02-28T03:30:39;6.13;;;3.10;;
28760;SDS011;15917;50.014;8.352;2023-02-28T03:35:50;5.60;;;3.20;;
28760;SDS011;15917;50.014;8.352;2023-02-28T03:38:30;5.63;;;3.05;;
28760;SDS011;15917;50.014;8.352;2023-02-28T03:41:00;4.93;;;3.05;;
28760;SDS011;15917;50.014;8.352;2023-02-28T03:43:32;7.53;;;3.08;;
28760;SDS011;15917;50.014;8.352;2023-02-28T03:46:05;7.93;;;3.38;;
28760;SDS011;15917;50.014;8.352;2023-02-28T03:48:36;4.55;;;2.80;;
28760;SDS011;15917;50.014;8.352;2023-02-28T03:51:17;4.22;;;3.08;;
28760;SDS011;15917;50.014;8.352;2023-02-28T03:53:49;6.70;;;2.83;;
28760;SDS011;15917;50.014;8.352;2023-02-28T03:56:21;10.63;;;3.20;;
28760;SDS011;15917;50.014;8.352;2023-02-28T03:59:09;7.10;;;2.80;;
28760;SDS011;15917;50.014;8.352;2023-02-28T04:01:44;7.88;;;3.10;;
28760;SDS011;15917;50.014;8.352;2023-02-28T04:04:11;6.60;;;3.13;;
28760;SDS011;15917;50.014;8.352;2023-02-28T04:06:38;5.35;;;3.05;;
28760;SDS011;15917;50.014;8.352;2023-02-28T04:09:04;8.48;;;3.20;;
28760;SDS011;15917;50.014;8.352;2023-02-28T04:14:04;4.20;;;3.13;;
28760;SDS011;15917;50.014;8.352;2023-02-28T04:16:33;6.70;;;3.03;;
28760;SDS011;15917;50.014;8.352;2023-02-28T04:18:59;4.95;;;2.78;;
28760;SDS011;15917;50.014;8.352;2023-02-28T04:21:46;6.10;;;3.17;;
28760;SDS011;15917;50.014;8.352;2023-02-28T04:24:14;8.70;;;3.53;;
28760;SDS011;15917;50.014;8.352;2023-02-28T04:26:43;6.97;;;3.50;;
28760;SDS011;15917;50.014;8.352;2023-02-28T04:29:11;8.52;;;3.45;;
28760;SDS011;15917;50.014;8.352;2023-02-28T04:34:04;5.97;;;3.42;;
28760;SDS011;15917;50.014;8.352;2023-02-28T04:36:30;8.63;;;3.35;;
28760;SDS011;15917;50.014;8.352;2023-02-28T04:38:56;4.90;;;2.80;;
28760;SDS011;15917;50.014;8.352;2023-02-28T04:41:22;11.93;;;2.95;;
28760;SDS011;15917;50.014;8.352;2023-02-28T04:43:48;6.95;;;2.75;;
28760;SDS011;15917;50.014;8.352;2023-02-28T04:46:14;7.88;;;3.47;;
28760;SDS011;15917;50.014;8.352;2023-02-28T04:48:40;6.20;;;3.55;;
28760;SDS011;15917;50.014;8.352;2023-02-28T04:51:07;5.63;;;2.95;;
28760;SDS011;15917;50.014;8.352;2023-02-28T04:53:35;8.13;;;2.67;;
28760;SDS011;15917;50.014;8.352;2023-02-28T04:56:02;6.43;;;2.95;;
28760;SDS011;15917;50.014;8.352;2023-02-28T04:58:28;9.25;;;3.10;;
28760;SDS011;15917;50.014;8.352;2023-02-28T05:00:56;5.85;;;3.10;;
28760;SDS011;15917;50.014;8.352;2023-02-28T05:03:37;5.78;;;3.25;;
28760;SDS011;15917;50.014;8.352;2023-02-28T05:06:05;4.00;;;2.80;;
28760;SDS011;15917;50.014;8.352;2023-02-28T05:08:32;6.28;;;2.80;;
28760;SDS011;15917;50.014;8.352;2023-02-28T05:10:57;7.75;;;3.28;;
28760;SDS011;15917;50.014;8.352;2023-02-28T05:15:51;4.55;;;3.10;;
28760;SDS011;15917;50.014;8.352;2023-02-28T05:18:17;12.18;;;3.97;;
28760;SDS011;15917;50.014;8.352;2023-02-28T05:20:43;5.72;;;2.95;;
28760;SDS011;15917;50.014;8.352;2023-02-28T05:23:10;7.53;;;2.72;;
28760;SDS011;15917;50.014;8.352;2023-02-28T05:25:37;6.05;;;3.20;;
28760;SDS011;15917;50.014;8.352;2023-02-28T05:28:03;4.45;;;2.63;;
28760;SDS011;15917;50.014;8.352;2023-02-28T05:30:29;9.07;;;2.42;;
28760;SDS011;15917;50.014;8.352;2023-02-28T05:32:56;6.72;;;2.92;;
28760;SDS011;15917;50.014;8.352;2023-02-28T05:35:23;3.88;;;2.60;;
28760;SDS011;15917;50.014;8.352;2023-02-28T05:37:49;8.52;;;3.05;;
28760;SDS011;15917;50.014;8.352;2023-02-28T05:40:15;6.30;;;3.03;;
28760;SDS011;15917;50.014;8.352;2023-02-28T05:42:41;3.47;;;2.38;;
28760;SDS011;15917;50.014;8.352;2023-02-28T05:45:07;3.90;;;2.22;;
28760;SDS011;15917;50.014;8.352;2023-02-28T05:47:34;4.95;;;2.83;;
28760;SDS011;15917;50.014;8.352;2023-02-28T05:49:59;7.38;;;2.67;;
28760;SDS011;15917;50.014;8.352;2023-02-28T05:52:26;4.70;;;2.85;;
28760;SDS011;15917;50.014;8.352;2023-02-28T05:54:52;3.90;;;2.40;;
28760;SDS011;15917;50.014;8.352;2023-02-28T05:57:18;4.57;;;2.40;;
28760;SDS011;15917;50.014;8.352;2023-02-28T05:59:44;5.85;;;2.53;;
28760;SDS011;15917;50.014;8.352;2023-02-28T06:02:12;5.55;;;3.15;;
28760;SDS011;15917;50.014;8.352;2023-02-28T06:04:40;7.53;;;2.85;;
28760;SDS011;15917;50.014;8.352;2023-02-28T06:07:06;5.10;;;2.33;;
28760;SDS011;15917;50.014;8.352;2023-02-28T06:09:32;4.40;;;2.50;;
28760;SDS011;15917;50.014;8.352;2023-02-28T06:11:58;6.10;;;2.47;;
28760;SDS011;15917;50.014;8.352;2023-02-28T06:14:25;4.07;;;2.60;;
28760;SDS011;15917;50.014;8.352;2023-02-28T06:16:51;3.60;;;2.63;;
28760;SDS011;15917;50.014;8.352;2023-02-28T06:19:17;5.90;;;2.65;;
28760;SDS011;15917;50.014;8.352;2023-02-28T06:21:42;9.05;;;3.25;;
28760;SDS011;15917;50.014;8.352;2023-02-28T06:24:08;5.53;;;2.97;;
28760;SDS011;15917;50.014;8.352;2023-02-28T06:26:35;4.53;;;2.35;;
28760;SDS011;15917;50.014;8.352;2023-02-28T06:29:01;6.97;;;2.78;;
28760;SDS011;15917;50.014;8.352;2023-02-28T06:31:28;7.28;;;3.20;;
28760;SDS011;15917;50.014;8.352;2023-02-28T06:33:54;5.10;;;2.78;;
28760;SDS011;15917;50.014;8.352;2023-02-28T06:36:20;4.07;;;2.80;;
28760;SDS011;15917;50.014;8.352;2023-02-28T06:38:46;5.72;;;2.90;;
28760;SDS011;15917;50.014;8.352;2023-02-28T06:41:16;6.47;;;3.03;;
28760;SDS011;15917;50.014;8.352;2023-02-28T06:43:42;6.72;;;3.03;;
28760;SDS011;15917;50.014;8.352;2023-02-28T06:46:10;6.93;;;3.38;;
28760;SDS011;15917;50.014;8.352;2023-02-28T06:48:38;3.38;;;2.65;;
28760;SDS011;15917;50.014;8.352;2023-02-28T06:51:10;5.30;;;2.55;;
28760;SDS011;15917;50.014;8.352;2023-02-28T06:53:38;8.63;;;2.97;;
28760;SDS011;15917;50.014;8.352;2023-02-28T06:56:05;13.00;;;2.65;;
28760;SDS011;15917;50.014;8.352;2023-02-28T06:58:31;6.72;;;2.60;;
28760;SDS011;15917;50.014;8.352;2023-02-28T07:00:57;4.45;;;2.17;;
28760;SDS011;15917;50.014;8.352;2023-02-28T07:03:23;5.70;;;2.72;;
28760;SDS011;15917;50.014;8.352;2023-02-28T07:05:48;4.78;;;2.70;;
28760;SDS011;15917;50.014;8.352;2023-02-28T07:08:14;5.30;;;2.70;;
28760;SDS011;15917;50.014;8.352;2023-02-28T07:10:40;5.43;;;2.70;;
28760;SDS011;15917;50.014;8.352;2023-02-28T07:13:06;5.78;;;3.15;;
28760;SDS011;15917;50.014;8.352;2023-02-28T07:15:33;6.95;;;3.13;;
28760;SDS011;15917;50.014;8.352;2023-02-28T07:17:59;5.25;;;3.08;;
28760;SDS011;15917;50.014;8.352;2023-02-28T07:20:25;5.10;;;3.00;;
28760;SDS011;15917;50.014;8.352;2023-02-28T07:22:51;6.20;;;2.53;;
28760;SDS011;15917;50.014;8.352;2023-02-28T07:25:25;4.80;;;3.00;;
28760;SDS011;15917;50.014;8.352;2023-02-28T07:27:52;6.25;;;2.92;;
28760;SDS011;15917;50.014;8.352;2023-02-28T07:30:19;6.05;;;3.40;;
28760;SDS011;15917;50.014;8.352;2023-02-28T07:32:45;16.73;;;3.35;;
28760;SDS011;15917;50.014;8.352;2023-02-28T07:35:11;10.98;;;2.97;;
28760;SDS011;15917;50.014;8.352;2023-02-28T07:37:36;7.95;;;3.50;;
28760;SDS011;15917;50.014;8.352;2023-02-28T07:40:06;9.88;;;3.97;;
28760;SDS011;15917;50.014;8.352;2023-02-28T07:42:34;18.30;;;3.90;;
28760;SDS011;15917;50.014;8.352;2023-02-28T07:45:03;6.47;;;3.75;;
28760;SDS011;15917;50.014;8.352;2023-02-28T07:47:30;7.38;;;3.85;;
28760;SDS011;15917;50.014;8.352;2023-02-28T07:49:56;7.07;;;3.03;;
28760;SDS011;15917;50.014;8.352;2023-02-28T07:52:22;7.20;;;3.95;;
28760;SDS011;15917;50.014;8.352;2023-02-28T07:54:52;8.95;;;3.60;;
28760;SDS011;15917;50.014;8.352;2023-02-28T07:57:17;7.35;;;3.20;;
28760;SDS011;15917;50.014;8.352;2023-02-28T07:59:43;13.05;;;3.90;;
28760;SDS011;15917;50.014;8.352;2023-02-28T08:02:12;7.20;;;3.40;;
28760;SDS011;15917;50.014;8.352;2023-02-28T08:04:39;8.77;;;3.70;;
28760;SDS011;15917;50.014;8.352;2023-02-28T08:07:05;6.97;;;3.75;;
28760;SDS011;15917;50.014;8.352;2023-02-28T08:09:31;6.68;;;3.60;;
28760;SDS011;15917;50.014;8.352;2023-02-28T08:11:56;9.15;;;4.10;;
28760;SDS011;15917;50.014;8.352;2023-02-28T08:14:22;13.32;;;3.72;;
28760;SDS011;15917;50.014;8.352;2023-02-28T08:16:48;7.75;;;4.05;;
28760;SDS011;15917;50.014;8.352;2023-02-28T08:19:13;8.02;;;4.63;;
28760;SDS011;15917;50.014;8.352;2023-02-28T08:21:39;10.25;;;3.90;;
28760;SDS011;15917;50.014;8.352;2023-02-28T08:24:05;13.13;;;4.43;;
28760;SDS011;15917;50.014;8.352;2023-02-28T08:26:31;8.68;;;4.03;;
28760;SDS011;15917;50.014;8.352;2023-02-28T08:28:56;9.15;;;3.97;;
28760;SDS011;15917;50.014;8.352;2023-02-28T08:31:22;10.77;;;4.10;;
28760;SDS011;15917;50.014;8.352;2023-02-28T08:33:48;15.07;;;8.10;;
28760;SDS011;15917;50.014;8.352;2023-02-28T08:36:16;24.17;;;10.63;;
28760;SDS011;15917;50.014;8.352;2023-02-28T08:38:42;8.07;;;4.43;;
28760;SDS011;15917;50.014;8.352;2023-02-28T08:41:08;12.18;;;6.53;;
28760;SDS011;15917;50.014;8.352;2023-02-28T08:46:01;10.27;;;3.75;;
28760;SDS011;15917;50.014;8.352;2023-02-28T08:48:29;9.38;;;3.75;;
28760;SDS011;15917;50.014;8.352;2023-02-28T08:51:02;7.15;;;2.67;;
28760;SDS011;15917;50.014;8.352;2023-02-28T08:53:30;8.95;;;3.25;;
28760;SDS011;15917;50.014;8.352;2023-02-28T08:55:57;7.20;;;3.28;;
28760;SDS011;15917;50.014;8.352;2023-02-28T08:58:24;8.98;;;3.95;;
28760;SDS011;15917;50.014;8.352;2023-02-28T09:00:50;11.38;;;3.28;;
28760;SDS011;15917;50.014;8.352;2023-02-28T09:03:16;11.07;;;3.30;;
28760;SDS011;15917;50.014;8.352;2023-02-28T09:05:51;6.72;;;3.00;;
28760;SDS011;15917;50.014;8.352;2023-02-28T09:08:21;4.80;;;2.65;;
28760;SDS011;15917;50.014;8.352;2023-02-28T09:10:48;5.68;;;3.10;;
28760;SDS011;15917;50.014;8.352;2023-02-28T09:13:15;18.83;;;6.35;;
28760;SDS011;15917;50.014;8.352;2023-02-28T09:15:40;21.17;;;7.70;;
28760;SDS011;15917;50.014;8.352;2023-02-28T09:18:06;87.47;;;24.38;;
28760;SDS011;15917;50.014;8.352;2023-02-28T09:20:31;75.43;;;26.50;;
28760;SDS011;15917;50.014;8.352;2023-02-28T09:22:57;22.20;;;9.43;;
28760;SDS011;15917;50.014;8.352;2023-02-28T09:25:22;16.85;;;5.65;;
28760;SDS011;15917;50.014;8.352;2023-02-28T09:27:48;14.85;;;6.65;;
28760;SDS011;15917;50.014;8.352;2023-02-28T09:30:14;5.72;;;3.83;;
28760;SDS011;15917;50.014;8.352;2023-02-28T09:32:40;14.18;;;4.53;;
28760;SDS011;15917;50.014;8.352;2023-02-28T09:35:05;4.93;;;3.03;;
28760;SDS011;15917;50.014;8.352;2023-02-28T09:37:31;16.92;;;3.33;;
28760;SDS011;15917;50.014;8.352;2023-02-28T09:39:57;18.05;;;3.53;;
28760;SDS011;15917;50.014;8.352;2023-02-28T09:42:30;14.75;;;5.75;;
28760;SDS011;15917;50.014;8.352;2023-02-28T09:44:58;6.88;;;3.53;;
28760;SDS011;15917;50.014;8.352;2023-02-28T09:47:31;5.45;;;3.35;;
28760;SDS011;15917;50.014;8.352;2023-02-28T09:49:59;4.53;;;3.03;;
28760;SDS011;15917;50.014;8.352;2023-02-28T09:52:38;9.88;;;2.97;;
28760;SDS011;15917;50.014;8.352;2023-02-28T09:58:14;5.43;;;2.60;;
28760;SDS011;15917;50.014;8.352;2023-02-28T10:00:49;18.08;;;3.25;;
28760;SDS011;15917;50.014;8.352;2023-02-28T10:06:13;15.40;;;3.22;;
28760;SDS011;15917;50.014;8.352;2023-02-28T10:08:45;8.82;;;3.20;;
28760;SDS011;15917;50.014;8.352;2023-02-28T10:11:38;6.38;;;3.03;;
28760;SDS011;15917;50.014;8.352;2023-02-28T10:14:19;7.22;;;2.60;;
28760;SDS011;15917;50.014;8.352;2023-02-28T10:16:56;9.45;;;3.00;;
28760;SDS011;15917;50.014;8.352;2023-02-28T10:19:30;15.20;;;3.00;;
28760;SDS011;15917;50.014;8.352;2023-02-28T10:22:05;5.28;;;2.78;;
28760;SDS011;15917;50.014;8.352;2023-02-28T10:24:43;9.82;;;3.00;;
28760;SDS011;15917;50.014;8.352;2023-02-28T10:27:15;5.75;;;2.53;;
28760;SDS011;15917;50.014;8.352;2023-02-28T10:29:44;7.60;;;3.10;;
28760;SDS011;15917;50.014;8.352;2023-02-28T10:32:25;6.85;;;3.33;;
28760;SDS011;15917;50.014;8.352;2023-02-28T10:35:07;7.90;;;2.78;;
28760;SDS011;15917;50.014;8.352;2023-02-28T10:37:47;4.47;;;2.60;;
28760;SDS011;15917;50.014;8.352;2023-02-28T10:40:25;8.20;;;3.20;;
28760;SDS011;15917;50.014;8.352;2023-02-28T10:45:33;7.68;;;3.30;;
28760;SDS011;15917;50.014;8.352;2023-02-28T10:50:44;5.97;;;2.88;;
28760;SDS011;15917;50.014;8.352;2023-02-28T10:58:31;11.30;;;3.67;;
28760;SDS011;15917;50.014;8.352;2023-02-28T11:01:12;4.93;;;3.13;;
28760;SDS011;15917;50.014;8.352;2023-02-28T11:03:44;6.22;;;3.42;;
28760;SDS011;15917;50.014;8.352;2023-02-28T11:06:14;6.40;;;3.30;;
28760;SDS011;15917;50.014;8.352;2023-02-28T11:08:46;9.48;;;3.55;;
28760;SDS011;15917;50.014;8.352;2023-02-28T11:11:14;7.97;;;3.20;;
28760;SDS011;15917;50.014;8.352;2023-02-28T11:13:42;7.35;;;3.58;;
28760;SDS011;15917;50.014;8.352;2023-02-28T11:16:10;16.02;;;4.07;;
28760;SDS011;15917;50.014;8.352;2023-02-28T11:18:48;7.75;;;3.30;;
28760;SDS011;15917;50.014;8.352;2023-02-28T11:21:20;6.25;;;2.70;;
28760;SDS011;15917;50.014;8.352;2023-02-28T11:24:02;12.25;;;3.42;;
28760;SDS011;15917;50.014;8.352;2023-02-28T11:26:41;11.40;;;3.72;;
28760;SDS011;15917;50.014;8.352;2023-02-28T11:29:11;4.95;;;3.03;;
28760;SDS011;15917;50.014;8.352;2023-02-28T11:32:05;6.05;;;3.42;;
28760;SDS011;15917;50.014;8.352;2023-02-28T11:34:33;6.40;;;3.55;;
28760;SDS011;15917;50.014;8.352;2023-02-28T11:37:01;8.57;;;3.70;;
28760;SDS011;15917;50.014;8.352;2023-02-28T11:39:30;8.18;;;3.22;;
28760;SDS011;15917;50.014;8.352;2023-02-28T11:42:04;10.15;;;3.60;;
28760;SDS011;15917;50.014;8.352;2023-02-28T11:50:41;4.45;;;2.83;;
28760;SDS011;15917;50.014;8.352;2023-02-28T11:56:12;6.72;;;3.20;;
28760;SDS011;15917;50.014;8.352;2023-02-28T12:01:28;6.30;;;2.80;;
28760;SDS011;15917;50.014;8.352;2023-02-28T12:06:50;7.30;;;3.20;;
28760;SDS011;15917;50.014;8.352;2023-02-28T12:09:47;7.07;;;3.67;;
28760;SDS011;15917;50.014;8.352;2023-02-28T12:29:09;14.65;;;3.70;;
28760;SDS011;15917;50.014;8.352;2023-02-28T12:32:08;8.57;;;4.35;;
28760;SDS011;15917;50.014;8.352;2023-02-28T12:34:43;8.60;;;4.00;;
28760;SDS011;15917;50.014;8.352;2023-02-28T12:37:15;14.20;;;3.78;;
28760;SDS011;15917;50.014;8.352;2023-02-28T12:39:49;7.35;;;3.97;;
28760;SDS011;15917;50.014;8.352;2023-02-28T12:42:28;10.05;;;4.25;;
28760;SDS011;15917;50.014;8.352;2023-02-28T12:44:58;7.30;;;3.65;;
28760;SDS011;15917;50.014;8.352;2023-02-28T12:47:26;9.45;;;3.28;;
28760;SDS011;15917;50.014;8.352;2023-02-28T12:49:53;8.52;;;3.88;;
28760;SDS011;15917;50.014;8.352;2023-02-28T12:52:24;7.68;;;3.80;;
28760;SDS011;15917;50.014;8.352;2023-02-28T13:00:19;12.55;;;3.63;;
28760;SDS011;15917;50.014;8.352;2023-02-28T13:03:09;10.20;;;4.60;;
28760;SDS011;15917;50.014;8.352;2023-02-28T13:06:10;8.15;;;4.32;;
28760;SDS011;15917;50.014;8.352;2023-02-28T13:09:01;8.48;;;4.03;;
28760;SDS011;15917;50.014;8.352;2023-02-28T13:11:41;9.25;;;4.30;;
28760;SDS011;15917;50.014;8.352;2023-02-28T13:14:25;7.57;;;3.70;;
28760;SDS011;15917;50.014;8.352;2023-02-28T13:19:33;7.95;;;4.40;;
28760;SDS011;15917;50.014;8.352;2023-02-28T13:22:04;8.30;;;3.85;;
28760;SDS011;15917;50.014;8.352;2023-02-28T13:29:28;7.50;;;4.18;;
28760;SDS011;15917;50.014;8.352;2023-02-28T13:34:36;6.65;;;4.13;;
28760;SDS011;15917;50.014;8.352;2023-02-28T13:39:51;8.88;;;4.93;;
28760;SDS011;15917;50.014;8.352;2023-02-28T13:42:23;8.35;;;4.75;;
28760;SDS011;15917;50.014;8.352;2023-02-28T13:47:41;9.68;;;4.50;;
28760;SDS011;15917;50.014;8.352;2023-02-28T13:50:22;12.20;;;4.65;;
28760;SDS011;15917;50.014;8.352;2023-02-28T13:55:46;10.90;;;4.25;;
28760;SDS011;15917;50.014;8.352;2023-02-28T14:06:53;16.88;;;5.30;;
28760;SDS011;15917;50.014;8.352;2023-02-28T14:09:27;9.02;;;4.72;;
28760;SDS011;15917;50.014;8.352;2023-02-28T14:11:57;13.73;;;5.40;;
28760;SDS011;15917;50.014;8.352;2023-02-28T14:15:01;8.73;;;5.00;;
28760;SDS011;15917;50.014;8.352;2023-02-28T14:17:27;13.65;;;5.20;;
28760;SDS011;15917;50.014;8.352;2023-02-28T14:19:53;10.10;;;4.60;;
28760;SDS011;15917;50.014;8.352;2023-02-28T14:28:23;13.15;;;5.28;;
28760;SDS011;15917;50.014;8.352;2023-02-28T14:36:26;14.70;;;4.75;;
28760;SDS011;15917;50.014;8.352;2023-02-28T14:39:01;14.20;;;5.18;;
28760;SDS011;15917;50.014;8.352;2023-02-28T14:44:03;9.23;;;5.05;;
28760;SDS011;15917;50.014;8.352;2023-02-28T14:46:46;11.98;;;5.55;;
28760;SDS011;15917;50.014;8.352;2023-02-28T14:49:23;9.52;;;4.97;;
28760;SDS011;15917;50.014;8.352;2023-02-28T14:51:50;10.82;;;5.40;;
28760;SDS011;15917;50.014;8.352;2023-02-28T14:54:40;8.63;;;4.55;;
28760;SDS011;15917;50.014;8.352;2023-02-28T14:57:12;9.95;;;4.80;;
28760;SDS011;15917;50.014;8.352;2023-02-28T14:59:56;7.65;;;4.65;;
28760;SDS011;15917;50.014;8.352;2023-02-28T15:02:30;14.57;;;5.10;;
28760;SDS011;15917;50.014;8.352;2023-02-28T15:05:00;12.30;;;5.07;;
28760;SDS011;15917;50.014;8.352;2023-02-28T15:07:47;7.38;;;4.72;;
28760;SDS011;15917;50.014;8.352;2023-02-28T15:10:23;11.45;;;5.20;;
28760;SDS011;15917;50.014;8.352;2023-02-28T15:15:27;9.77;;;4.97;;
28760;SDS011;15917;50.014;8.352;2023-02-28T15:21:11;8.13;;;4.68;;
28760;SDS011;15917;50.014;8.352;2023-02-28T15:23:42;12.70;;;6.03;;
28760;SDS011;15917;50.014;8.352;2023-02-28T15:26:19;13.27;;;5.70;;
28760;SDS011;15917;50.014;8.352;2023-02-28T15:28:48;15.32;;;4.55;;
28760;SDS011;15917;50.014;8.352;2023-02-28T15:31:21;10.50;;;5.13;;
28760;SDS011;15917;50.014;8.352;2023-02-28T15:33:56;10.20;;;5.35;;
28760;SDS011;15917;50.014;8.352;2023-02-28T15:36:29;12.15;;;5.20;;
28760;SDS011;15917;50.014;8.352;2023-02-28T15:38:58;13.80;;;5.05;;
28760;SDS011;15917;50.014;8.352;2023-02-28T15:41:36;12.95;;;7.90;;
28760;SDS011;15917;50.014;8.352;2023-02-28T15:44:24;10.10;;;3.45;;
28760;SDS011;15917;50.014;8.352;2023-02-28T15:46:57;8.48;;;4.70;;
28760;SDS011;15917;50.014;8.352;2023-02-28T15:49:27;14.82;;;5.07;;
28760;SDS011;15917;50.014;8.352;2023-02-28T15:51:55;10.60;;;5.15;;
28760;SDS011;15917;50.014;8.352;2023-02-28T15:54:27;11.18;;;4.88;;
28760;SDS011;15917;50.014;8.352;2023-02-28T15:56:56;13.48;;;5.72;;
28760;SDS011;15917;50.014;8.352;2023-02-28T15:59:24;14.60;;;5.70;;
28760;SDS011;15917;50.014;8.352;2023-02-28T16:04:56;10.38;;;5.47;;
28760;SDS011;15917;50.014;8.352;2023-02-28T16:07:32;18.00;;;6.15;;
28760;SDS011;15917;50.014;8.352;2023-02-28T16:09:59;11.70;;;5.32;;
28760;SDS011;15917;50.014;8.352;2023-02-28T16:12:28;11.30;;;5.05;;
28760;SDS011;15917;50.014;8.352;2023-02-28T16:14:56;12.30;;;5.30;;
28760;SDS011;15917;50.014;8.352;2023-02-28T16:17:34;8.60;;;5.13;;
28760;SDS011;15917;50.014;8.352;2023-02-28T16:20:11;9.35;;;5.03;;
28760;SDS011;15917;50.014;8.352;2023-02-28T16:22:40;10.82;;;5.45;;
28760;SDS011;15917;50.014;8.352;2023-02-28T16:25:07;10.68;;;5.13;;
28760;SDS011;15917;50.014;8.352;2023-02-28T16:27:38;10.98;;;4.65;;
28760;SDS011;15917;50.014;8.352;2023-02-28T16:30:04;8.80;;;4.57;;
28760;SDS011;15917;50.014;8.352;2023-02-28T16:34:59;9.23;;;5.10;;
28760;SDS011;15917;50.014;8.352;2023-02-28T16:37:26;8.93;;;4.80;;
28760;SDS011;15917;50.014;8.352;2023-02-28T16:39:52;10.45;;;4.60;;
28760;SDS011;15917;50.014;8.352;2023-02-28T16:42:22;11.63;;;5.45;;
28760;SDS011;15917;50.014;8.352;2023-02-28T16:44:50;12.02;;;5.63;;
28760;SDS011;15917;50.014;8.352;2023-02-28T16:47:17;14.50;;;6.30;;
28760;SDS011;15917;50.014;8.352;2023-02-28T16:49:43;12.15;;;5.60;;
28760;SDS011;15917;50.014;8.352;2023-02-28T16:52:09;10.73;;;5.20;;
28760;SDS011;15917;50.014;8.352;2023-02-28T16:54:35;10.98;;;4.97;;
28760;SDS011;15917;50.014;8.352;2023-02-28T16:57:01;9.00;;;4.93;;
28760;SDS011;15917;50.014;8.352;2023-02-28T16:59:27;13.18;;;6.00;;
28760;SDS011;15917;50.014;8.352;2023-02-28T17:01:54;12.93;;;6.15;;
28760;SDS011;15917;50.014;8.352;2023-02-28T17:04:22;11.30;;;5.18;;
28760;SDS011;15917;50.014;8.352;2023-02-28T17:06:49;11.98;;;5.43;;
28760;SDS011;15917;50.014;8.352;2023-02-28T17:09:16;7.90;;;4.93;;
28760;SDS011;15917;50.014;8.352;2023-02-28T17:11:43;11.57;;;5.38;;
28760;SDS011;15917;50.014;8.352;2023-02-28T17:14:09;8.43;;;5.05;;
28760;SDS011;15917;50.014;8.352;2023-02-28T17:16:35;7.78;;;4.57;;
28760;SDS011;15917;50.014;8.352;2023-02-28T17:19:09;12.60;;;5.85;;
28760;SDS011;15917;50.014;8.352;2023-02-28T17:21:38;13.23;;;6.10;;
28760;SDS011;15917;50.014;8.352;2023-02-28T17:24:04;12.43;;;5.43;;
28760;SDS011;15917;50.014;8.352;2023-02-28T17:26:30;11.85;;;5.82;;
28760;SDS011;15917;50.014;8.352;2023-02-28T17:28:56;9.48;;;5.70;;
28760;SDS011;15917;50.014;8.352;2023-02-28T17:31:23;13.50;;;5.55;;
28760;SDS011;15917;50.014;8.352;2023-02-28T17:33:50;12.97;;;6.57;;
28760;SDS011;15917;50.014;8.352;2023-02-28T17:36:16;12.85;;;7.07;;